sensor_id;sensor_type;location;lat;lon;timestamp;pressure;altitude;pressure_sealevel;temperature;humidity
36254;BME280;22291;52.250;21.228;2022-11-21T00:01:18;99560.03;;;-3.23;80.99
36254;BME280;22291;52.250;21.228;2022-11-21T00:03:46;99549.98;;;-3.23;81.03
36254;BME280;22291;52.250;21.228;2022-11-21T00:06:14;99560.03;;;-3.23;81.10
36254;BME280;22291;52.250;21.228;2022-11-21T00:08:41;99564.30;;;-3.22;81.22
36254;BME280;22291;52.250;21.228;2022-11-21T00:11:11;99563.23;;;-3.21;81.25
36254;BME280;22291;52.250;21.228;2022-11-21T00:13:38;99563.23;;;-3.21;81.55
36254;BME280;22291;52.250;21.228;2022-11-21T00:16:07;99557.92;;;-3.23;81.33
36254;BME280;22291;52.250;21.228;2022-11-21T00:18:36;99560.33;;;-3.22;81.28
36254;BME280;22291;52.250;21.228;2022-11-21T00:21:09;99559.01;;;-3.22;81.33
36254;BME280;22291;52.250;21.228;2022-11-21T00:23:33;99558.18;;;-3.22;81.40
36254;BME280;22291;52.250;21.228;2022-11-21T00:26:06;99554.22;;;-3.22;81.17
36254;BME280;22291;52.250;21.228;2022-11-21T00:28:34;99557.09;;;-3.24;81.17
36254;BME280;22291;52.250;21.228;2022-11-21T00:31:01;99561.06;;;-3.24;81.17
36254;BME280;22291;52.250;21.228;2022-11-21T00:33:28;99559.97;;;-3.25;81.00
36254;BME280;22291;52.250;21.228;2022-11-21T00:35:55;99561.82;;;-3.26;81.23
36254;BME280;22291;52.250;21.228;2022-11-21T00:38:21;99565.23;;;-3.28;81.27
36254;BME280;22291;52.250;21.228;2022-11-21T00:40:49;99560.70;;;-3.30;81.28
36254;BME280;22291;52.250;21.228;2022-11-21T00:43:15;99567.02;;;-3.31;81.38
36254;BME280;22291;52.250;21.228;2022-11-21T00:45:41;99567.02;;;-3.31;81.46
36254;BME280;22291;52.250;21.228;2022-11-21T00:48:08;99560.41;;;-3.31;81.49
36254;BME280;22291;52.250;21.228;2022-11-21T00:50:34;99558.28;;;-3.31;81.40
36254;BME280;22291;52.250;21.228;2022-11-21T00:53:00;99561.72;;;-3.31;81.46
36254;BME280;22291;52.250;21.228;2022-11-21T00:55:26;99550.87;;;-3.32;81.60
36254;BME280;22291;52.250;21.228;2022-11-21T00:57:52;99535.27;;;-3.31;81.61
36254;BME280;22291;52.250;21.228;2022-11-21T01:00:18;99534.75;;;-3.30;81.66
36254;BME280;22291;52.250;21.228;2022-11-21T01:02:45;99529.19;;;-3.31;81.66
36254;BME280;22291;52.250;21.228;2022-11-21T01:05:11;99533.72;;;-3.29;81.82
36254;BME280;22291;52.250;21.228;2022-11-21T01:07:37;99527.11;;;-3.29;81.51
36254;BME280;22291;52.250;21.228;2022-11-21T01:10:04;99521.52;;;-3.30;81.31
36254;BME280;22291;52.250;21.228;2022-11-21T01:12:31;99521.81;;;-3.29;81.38
36254;BME280;22291;52.250;21.228;2022-11-21T01:14:58;99516.77;;;-3.31;81.33
36254;BME280;22291;52.250;21.228;2022-11-21T01:17:24;99515.73;;;-3.30;81.29
36254;BME280;22291;52.250;21.228;2022-11-21T01:19:50;99515.67;;;-3.32;81.15
36254;BME280;22291;52.250;21.228;2022-11-21T01:22:16;99517.23;;;-3.34;81.21
36254;BME280;22291;52.250;21.228;2022-11-21T01:24:43;99515.34;;;-3.36;81.13
36254;BME280;22291;52.250;21.228;2022-11-21T01:27:09;99516.41;;;-3.37;80.96
36254;BME280;22291;52.250;21.228;2022-11-21T01:29:35;99513.40;;;-3.41;80.76
36254;BME280;22291;52.250;21.228;2022-11-21T01:32:03;99509.16;;;-3.42;80.93
36254;BME280;22291;52.250;21.228;2022-11-21T01:34:29;99514.39;;;-3.44;80.77
36254;BME280;22291;52.250;21.228;2022-11-21T01:36:56;99511.95;;;-3.48;81.12
36254;BME280;22291;52.250;21.228;2022-11-21T01:39:24;99517.70;;;-3.51;81.15
36254;BME280;22291;52.250;21.228;2022-11-21T01:41:50;99514.72;;;-3.55;80.99
36254;BME280;22291;52.250;21.228;2022-11-21T01:44:25;99507.55;;;-3.57;81.23
36254;BME280;22291;52.250;21.228;2022-11-21T01:46:55;99513.64;;;-3.57;81.49
36254;BME280;22291;52.250;21.228;2022-11-21T01:49:29;99507.48;;;-3.60;81.53
36254;BME280;22291;52.250;21.228;2022-11-21T01:52:21;99510.66;;;-3.60;81.62
36254;BME280;22291;52.250;21.228;2022-11-21T01:54:53;99500.55;;;-3.63;81.44
36254;BME280;22291;52.250;21.228;2022-11-21T02:02:56;99492.81;;;-3.67;81.17
36254;BME280;22291;52.250;21.228;2022-11-21T02:05:28;99497.55;;;-3.69;81.29
36254;BME280;22291;52.250;21.228;2022-11-21T02:08:04;99502.77;;;-3.72;81.20
36254;BME280;22291;52.250;21.228;2022-11-21T02:10:29;99502.20;;;-3.74;81.15
36254;BME280;22291;52.250;21.228;2022-11-21T02:12:57;99501.34;;;-3.77;80.96
36254;BME280;22291;52.250;21.228;2022-11-21T02:15:26;99498.06;;;-3.82;80.61
36254;BME280;22291;52.250;21.228;2022-11-21T02:17:54;99497.73;;;-3.85;80.36
36254;BME280;22291;52.250;21.228;2022-11-21T02:20:23;99491.81;;;-3.90;80.60
36254;BME280;22291;52.250;21.228;2022-11-21T02:25:51;99487.25;;;-3.95;81.00
36254;BME280;22291;52.250;21.228;2022-11-21T02:28:21;99483.98;;;-3.99;80.74
36254;BME280;22291;52.250;21.228;2022-11-21T02:30:51;99479.38;;;-4.04;80.51
36254;BME280;22291;52.250;21.228;2022-11-21T02:33:17;99484.06;;;-4.08;80.13
36254;BME280;22291;52.250;21.228;2022-11-21T02:35:43;99494.22;;;-4.15;80.02
36254;BME280;22291;52.250;21.228;2022-11-21T02:38:26;99495.89;;;-4.23;79.73
36254;BME280;22291;52.250;21.228;2022-11-21T02:43:48;99498.05;;;-4.34;79.53
36254;BME280;22291;52.250;21.228;2022-11-21T02:46:17;99498.37;;;-4.42;79.32
36254;BME280;22291;52.250;21.228;2022-11-21T02:48:45;99498.98;;;-4.50;79.48
36254;BME280;22291;52.250;21.228;2022-11-21T02:51:15;99498.48;;;-4.61;79.01
36254;BME280;22291;52.250;21.228;2022-11-21T02:53:41;99498.48;;;-4.61;79.01
36254;BME280;22291;52.250;21.228;2022-11-21T02:56:07;99501.00;;;-4.66;79.05
36254;BME280;22291;52.250;21.228;2022-11-21T02:58:33;99504.27;;;-4.73;78.97
36254;BME280;22291;52.250;21.228;2022-11-21T03:01:00;99502.08;;;-4.76;79.10
36254;BME280;22291;52.250;21.228;2022-11-21T03:03:26;99506.71;;;-4.81;79.25
36254;BME280;22291;52.250;21.228;2022-11-21T03:05:53;99511.12;;;-4.84;79.30
36254;BME280;22291;52.250;21.228;2022-11-21T03:08:21;99507.61;;;-4.87;79.48
36254;BME280;22291;52.250;21.228;2022-11-21T03:10:47;99514.95;;;-4.89;79.24
36254;BME280;22291;52.250;21.228;2022-11-21T03:13:13;99515.92;;;-4.93;79.29
36254;BME280;22291;52.250;21.228;2022-11-21T03:15:39;99520.32;;;-4.96;79.51
36254;BME280;22291;52.250;21.228;2022-11-21T03:18:07;99520.77;;;-4.99;79.87
36254;BME280;22291;52.250;21.228;2022-11-21T03:20:33;99529.64;;;-5.02;80.27
36254;BME280;22291;52.250;21.228;2022-11-21T03:23:00;99537.20;;;-5.06;80.42
36254;BME280;22291;52.250;21.228;2022-11-21T03:25:28;99542.21;;;-5.07;80.27
36254;BME280;22291;52.250;21.228;2022-11-21T03:27:54;99537.38;;;-5.10;80.39
36254;BME280;22291;52.250;21.228;2022-11-21T03:30:24;99535.27;;;-5.11;80.75
36254;BME280;22291;52.250;21.228;2022-11-21T03:32:56;99531.23;;;-5.13;80.86
36254;BME280;22291;52.250;21.228;2022-11-21T03:35:25;99527.49;;;-5.15;80.51
36254;BME280;22291;52.250;21.228;2022-11-21T03:37:51;99529.03;;;-5.16;80.98
36254;BME280;22291;52.250;21.228;2022-11-21T03:40:20;99531.23;;;-5.13;81.13
36254;BME280;22291;52.250;21.228;2022-11-21T03:42:47;99533.12;;;-5.11;81.39
36254;BME280;22291;52.250;21.228;2022-11-21T03:45:13;99534.66;;;-5.13;80.86
36254;BME280;22291;52.250;21.228;2022-11-21T03:47:41;99543.62;;;-5.14;81.02
36254;BME280;22291;52.250;21.228;2022-11-21T03:50:09;99540.90;;;-5.16;80.60
36254;BME280;22291;52.250;21.228;2022-11-21T03:52:36;99541.34;;;-5.19;80.49
36254;BME280;22291;52.250;21.228;2022-11-21T03:55:03;99535.71;;;-5.23;80.66
36254;BME280;22291;52.250;21.228;2022-11-21T03:57:30;99535.94;;;-5.25;81.07
36254;BME280;22291;52.250;21.228;2022-11-21T04:00:00;99530.97;;;-5.23;81.37
36254;BME280;22291;52.250;21.228;2022-11-21T04:02:26;99535.22;;;-5.22;81.61
36254;BME280;22291;52.250;21.228;2022-11-21T04:04:52;99532.06;;;-5.22;81.57
36254;BME280;22291;52.250;21.228;2022-11-21T04:07:18;99537.64;;;-5.21;81.37
36254;BME280;22291;52.250;21.228;2022-11-21T04:09:44;99535.22;;;-5.22;81.00
36254;BME280;22291;52.250;21.228;2022-11-21T04:12:13;99536.45;;;-5.25;80.71
36254;BME280;22291;52.250;21.228;2022-11-21T04:14:41;99532.15;;;-5.29;80.41
36254;BME280;22291;52.250;21.228;2022-11-21T04:17:07;99535.30;;;-5.29;80.45
36254;BME280;22291;52.250;21.228;2022-11-21T04:19:33;99526.44;;;-5.35;80.19
36254;BME280;22291;52.250;21.228;2022-11-21T04:21:59;99522.34;;;-5.40;79.97
36254;BME280;22291;52.250;21.228;2022-11-21T04:24:25;99527.20;;;-5.46;79.81
36254;BME280;22291;52.250;21.228;2022-11-21T04:26:53;99527.20;;;-5.46;79.52
36254;BME280;22291;52.250;21.228;2022-11-21T04:29:21;99521.50;;;-5.52;79.23
36254;BME280;22291;52.250;21.228;2022-11-21T04:31:47;99529.27;;;-5.57;79.09
36254;BME280;22291;52.250;21.228;2022-11-21T04:34:16;99527.80;;;-5.63;78.96
36254;BME280;22291;52.250;21.228;2022-11-21T04:36:42;99528.45;;;-5.67;78.89
36254;BME280;22291;52.250;21.228;2022-11-21T04:39:08;99526.51;;;-5.72;79.12
36254;BME280;22291;52.250;21.228;2022-11-21T04:41:34;99518.52;;;-5.74;79.33
36254;BME280;22291;52.250;21.228;2022-11-21T04:44:01;99517.58;;;-5.80;79.15
36254;BME280;22291;52.250;21.228;2022-11-21T04:46:29;99515.47;;;-5.80;79.51
36254;BME280;22291;52.250;21.228;2022-11-21T04:48:56;99520.43;;;-5.82;79.50
36254;BME280;22291;52.250;21.228;2022-11-21T04:51:24;99514.80;;;-5.85;79.44
36254;BME280;22291;52.250;21.228;2022-11-21T04:53:50;99522.39;;;-5.86;79.82
36254;BME280;22291;52.250;21.228;2022-11-21T04:56:16;99516.33;;;-5.87;80.02
36254;BME280;22291;52.250;21.228;2022-11-21T04:58:43;99506.02;;;-5.88;80.01
36254;BME280;22291;52.250;21.228;2022-11-21T05:01:10;99504.70;;;-5.88;80.04
36254;BME280;22291;52.250;21.228;2022-11-21T05:03:36;99504.39;;;-5.89;80.03
36254;BME280;22291;52.250;21.228;2022-11-21T05:06:03;99512.02;;;-5.90;79.85
36254;BME280;22291;52.250;21.228;2022-11-21T05:08:29;99504.55;;;-5.93;79.55
36254;BME280;22291;52.250;21.228;2022-11-21T05:10:55;99513.77;;;-5.93;79.43
36254;BME280;22291;52.250;21.228;2022-11-21T05:13:40;99509.24;;;-5.95;79.57
36254;BME280;22291;52.250;21.228;2022-11-21T05:16:06;99513.44;;;-5.97;80.00
36254;BME280;22291;52.250;21.228;2022-11-21T05:18:34;99504.44;;;-5.98;80.37
36254;BME280;22291;52.250;21.228;2022-11-21T05:21:01;99512.34;;;-5.98;80.32
36254;BME280;22291;52.250;21.228;2022-11-21T05:23:29;99513.34;;;-5.99;80.35
36254;BME280;22291;52.250;21.228;2022-11-21T05:25:55;99506.98;;;-6.01;80.38
36254;BME280;22291;52.250;21.228;2022-11-21T05:28:21;99504.34;;;-6.01;80.73
36254;BME280;22291;52.250;21.228;2022-11-21T05:30:48;99501.50;;;-5.99;80.87
36254;BME280;22291;52.250;21.228;2022-11-21T05:33:16;99497.06;;;-5.99;80.74
36254;BME280;22291;52.250;21.228;2022-11-21T05:35:43;99499.69;;;-5.99;80.79
36254;BME280;22291;52.250;21.228;2022-11-21T05:38:10;99506.06;;;-5.97;80.33
36254;BME280;22291;52.250;21.228;2022-11-21T05:40:36;99504.44;;;-5.98;80.10
36254;BME280;22291;52.250;21.228;2022-11-21T05:43:02;99502.54;;;-6.01;80.11
36254;BME280;22291;52.250;21.228;2022-11-21T05:45:49;99507.50;;;-6.02;79.88
36254;BME280;22291;52.250;21.228;2022-11-21T05:48:16;99503.50;;;-6.04;79.78
36254;BME280;22291;52.250;21.228;2022-11-21T05:50:47;99500.56;;;-6.05;80.35
36254;BME280;22291;52.250;21.228;2022-11-21T05:53:15;99514.25;;;-6.06;80.56
36254;BME280;22291;52.250;21.228;2022-11-21T05:55:43;99508.45;;;-6.05;80.57
36254;BME280;22291;52.250;21.228;2022-11-21T05:58:11;99515.83;;;-6.05;80.40
36254;BME280;22291;52.250;21.228;2022-11-21T06:00:39;99513.72;;;-6.05;80.35
36254;BME280;22291;52.250;21.228;2022-11-21T06:03:12;99515.47;;;-6.08;80.30
36254;BME280;22291;52.250;21.228;2022-11-21T06:06:07;99520.30;;;-6.05;80.49
36254;BME280;22291;52.250;21.228;2022-11-21T06:08:42;99520.00;;;-6.06;80.58
36254;BME280;22291;52.250;21.228;2022-11-21T06:11:15;99528.42;;;-6.07;80.25
36254;BME280;22291;52.250;21.228;2022-11-21T06:13:43;99523.95;;;-6.06;80.40
36254;BME280;22291;52.250;21.228;2022-11-21T06:16:13;99520.00;;;-6.06;80.18
36254;BME280;22291;52.250;21.228;2022-11-21T06:18:45;99518.41;;;-6.07;80.23
36254;BME280;22291;52.250;21.228;2022-11-21T06:21:17;99512.41;;;-6.05;80.47
36254;BME280;22291;52.250;21.228;2022-11-21T06:23:54;99511.89;;;-6.05;80.67
36254;BME280;22291;52.250;21.228;2022-11-21T06:26:24;99509.03;;;-6.03;80.72
36254;BME280;22291;52.250;21.228;2022-11-21T06:28:53;99513.87;;;-6.00;80.82
36254;BME280;22291;52.250;21.228;2022-11-21T06:31:22;99513.95;;;-5.97;81.02
36254;BME280;22291;52.250;21.228;2022-11-21T06:33:57;99498.16;;;-5.97;81.29
36254;BME280;22291;52.250;21.228;2022-11-21T06:36:23;99494.91;;;-5.90;81.39
36254;BME280;22291;52.250;21.228;2022-11-21T06:38:53;99497.37;;;-5.86;81.45
36254;BME280;22291;52.250;21.228;2022-11-21T06:41:23;99497.73;;;-5.83;81.56
36254;BME280;22291;52.250;21.228;2022-11-21T06:43:51;99506.61;;;-5.77;81.64
36254;BME280;22291;52.250;21.228;2022-11-21T06:46:18;99507.77;;;-5.73;81.72
36254;BME280;22291;52.250;21.228;2022-11-21T06:48:44;99504.25;;;-5.67;81.56
36254;BME280;22291;52.250;21.228;2022-11-21T06:51:22;99507.73;;;-5.64;81.59
36254;BME280;22291;52.250;21.228;2022-11-21T06:53:55;99508.70;;;-5.58;81.69
36254;BME280;22291;52.250;21.228;2022-11-21T06:56:26;99512.05;;;-5.51;81.81
36254;BME280;22291;52.250;21.228;2022-11-21T06:58:54;99521.63;;;-5.47;81.89
36254;BME280;22291;52.250;21.228;2022-11-21T07:01:23;99515.53;;;-5.38;81.94
36254;BME280;22291;52.250;21.228;2022-11-21T07:03:51;99514.35;;;-5.33;82.13
36254;BME280;22291;52.250;21.228;2022-11-21T07:06:18;99518.66;;;-5.30;82.28
36254;BME280;22291;52.250;21.228;2022-11-21T07:08:44;99513.66;;;-5.19;82.62
36254;BME280;22291;52.250;21.228;2022-11-21T07:11:12;99520.23;;;-5.10;82.71
36254;BME280;22291;52.250;21.228;2022-11-21T07:13:41;99513.82;;;-5.02;82.77
36254;BME280;22291;52.250;21.228;2022-11-21T07:16:11;99521.50;;;-4.92;82.83
36254;BME280;22291;52.250;21.228;2022-11-21T07:18:42;99510.89;;;-4.82;83.10
36254;BME280;22291;52.250;21.228;2022-11-21T07:21:10;99516.98;;;-4.70;83.29
36254;BME280;22291;52.250;21.228;2022-11-21T07:23:36;99522.88;;;-4.56;83.63
36254;BME280;22291;52.250;21.228;2022-11-21T07:26:05;99519.16;;;-4.46;83.37
36254;BME280;22291;52.250;21.228;2022-11-21T07:28:34;99519.62;;;-4.37;83.24
36254;BME280;22291;52.250;21.228;2022-11-21T07:31:03;99525.12;;;-4.27;82.98
36254;BME280;22291;52.250;21.228;2022-11-21T07:33:29;99512.41;;;-4.16;83.33
36254;BME280;22291;52.250;21.228;2022-11-21T07:35:57;99508.39;;;-3.95;83.93
36254;BME280;22291;52.250;21.228;2022-11-21T07:38:25;99507.19;;;-3.75;83.85
36254;BME280;22291;52.250;21.228;2022-11-21T07:40:55;99498.10;;;-3.53;84.70
36254;BME280;22291;52.250;21.228;2022-11-21T07:43:22;99505.28;;;-3.22;84.96
36254;BME280;22291;52.250;21.228;2022-11-21T07:45:48;99500.48;;;-2.94;85.54
36254;BME280;22291;52.250;21.228;2022-11-21T07:48:15;99496.37;;;-2.53;86.46
36254;BME280;22291;52.250;21.228;2022-11-21T07:50:41;99494.06;;;-2.11;86.72
36254;BME280;22291;52.250;21.228;2022-11-21T07:53:09;99485.82;;;-1.70;87.09
36254;BME280;22291;52.250;21.228;2022-11-21T07:55:38;99494.42;;;-1.36;85.28
36254;BME280;22291;52.250;21.228;2022-11-21T07:58:11;99495.70;;;-1.11;84.26
36254;BME280;22291;52.250;21.228;2022-11-21T08:00:38;99494.41;;;-0.79;84.58
36254;BME280;22291;52.250;21.228;2022-11-21T08:03:08;99489.84;;;-0.51;82.78
36254;BME280;22291;52.250;21.228;2022-11-21T08:05:40;99488.72;;;-0.20;82.09
36254;BME280;22291;52.250;21.228;2022-11-21T08:08:09;99493.06;;;0.02;81.54
36254;BME280;22291;52.250;21.228;2022-11-21T08:10:41;99488.42;;;0.29;81.45
36254;BME280;22291;52.250;21.228;2022-11-21T08:13:12;99486.92;;;0.69;82.18
36254;BME280;22291;52.250;21.228;2022-11-21T08:15:39;99486.73;;;1.20;82.28
36254;BME280;22291;52.250;21.228;2022-11-21T08:18:16;99474.72;;;1.56;80.39
36254;BME280;22291;52.250;21.228;2022-11-21T08:20:44;99483.69;;;1.96;80.23
36254;BME280;22291;52.250;21.228;2022-11-21T08:23:10;99493.96;;;2.36;78.48
36254;BME280;22291;52.250;21.228;2022-11-21T08:25:38;99495.49;;;2.50;76.09
36254;BME280;22291;52.250;21.228;2022-11-21T08:28:07;99502.12;;;2.63;75.25
36254;BME280;22291;52.250;21.228;2022-11-21T08:30:37;99499.88;;;2.80;75.58
36254;BME280;22291;52.250;21.228;2022-11-21T08:33:05;99494.28;;;3.18;76.34
36254;BME280;22291;52.250;21.228;2022-11-21T08:35:36;99501.41;;;3.60;76.31
36254;BME280;22291;52.250;21.228;2022-11-21T08:38:09;99498.05;;;4.03;74.42
36254;BME280;22291;52.250;21.228;2022-11-21T08:40:35;99503.33;;;4.32;73.51
36254;BME280;22291;52.250;21.228;2022-11-21T08:43:07;99501.81;;;4.26;70.13
36254;BME280;22291;52.250;21.228;2022-11-21T08:45:35;99499.48;;;4.17;69.84
36254;BME280;22291;52.250;21.228;2022-11-21T08:48:11;99510.64;;;4.24;69.51
36254;BME280;22291;52.250;21.228;2022-11-21T08:50:38;99505.27;;;4.26;68.45
36254;BME280;22291;52.250;21.228;2022-11-21T08:53:05;99503.35;;;4.51;70.43
36254;BME280;22291;52.250;21.228;2022-11-21T08:55:33;99503.94;;;5.08;71.76
36254;BME280;22291;52.250;21.228;2022-11-21T08:58:00;99508.44;;;5.75;71.24
36254;BME280;22291;52.250;21.228;2022-11-21T09:00:27;99495.83;;;6.34;70.92
36254;BME280;22291;52.250;21.228;2022-11-21T09:02:53;99489.87;;;6.99;69.89
36254;BME280;22291;52.250;21.228;2022-11-21T09:05:21;99479.91;;;7.44;68.36
36254;BME280;22291;52.250;21.228;2022-11-21T09:07:47;99476.19;;;7.94;67.16
36254;BME280;22291;52.250;21.228;2022-11-21T09:10:24;99475.45;;;8.40;66.05
36254;BME280;22291;52.250;21.228;2022-11-21T09:12:52;99480.84;;;8.95;65.53
36254;BME280;22291;52.250;21.228;2022-11-21T09:15:18;99475.27;;;9.18;62.82
36254;BME280;22291;52.250;21.228;2022-11-21T09:18:04;99481.97;;;9.52;62.32
36254;BME280;22291;52.250;21.228;2022-11-21T09:20:40;99482.20;;;9.86;61.04
36254;BME280;22291;52.250;21.228;2022-11-21T09:23:11;99478.85;;;10.04;59.92
36254;BME280;22291;52.250;21.228;2022-11-21T09:25:39;99469.26;;;10.39;59.67
36254;BME280;22291;52.250;21.228;2022-11-21T09:28:09;99473.05;;;10.68;58.79
36254;BME280;22291;52.250;21.228;2022-11-21T09:30:39;99471.23;;;10.87;57.89
36254;BME280;22291;52.250;21.228;2022-11-21T09:33:08;99466.94;;;11.13;56.92
36254;BME280;22291;52.250;21.228;2022-11-21T09:35:36;99460.72;;;11.39;56.00
36254;BME280;22291;52.250;21.228;2022-11-21T09:38:04;99466.43;;;11.90;55.66
36254;BME280;22291;52.250;21.228;2022-11-21T09:40:33;99473.94;;;12.18;54.17
36254;BME280;22291;52.250;21.228;2022-11-21T09:48:44;99474.08;;;11.69;49.72
36254;BME280;22291;52.250;21.228;2022-11-21T09:51:16;99475.58;;;11.27;49.66
36254;BME280;22291;52.250;21.228;2022-11-21T09:53:56;99472.98;;;10.76;49.23
36254;BME280;22291;52.250;21.228;2022-11-21T09:56:26;99463.68;;;10.20;48.97
36254;BME280;22291;52.250;21.228;2022-11-21T09:59:22;99467.66;;;9.61;48.93
36254;BME280;22291;52.250;21.228;2022-11-21T10:01:47;99457.76;;;9.00;49.70
36254;BME280;22291;52.250;21.228;2022-11-21T10:04:14;99440.48;;;8.37;50.23
36254;BME280;22291;52.250;21.228;2022-11-21T10:07:00;99440.77;;;8.47;52.23
36254;BME280;22291;52.250;21.228;2022-11-21T10:15:49;99423.54;;;9.15;50.69
36254;BME280;22291;52.250;21.228;2022-11-21T10:21:35;99419.64;;;10.50;52.92
36254;BME280;22291;52.250;21.228;2022-11-21T10:26:53;99406.91;;;11.63;50.58
36254;BME280;22291;52.250;21.228;2022-11-21T10:29:31;99403.57;;;11.96;49.67
36254;BME280;22291;52.250;21.228;2022-11-21T10:35:02;99406.82;;;11.65;47.60
36254;BME280;22291;52.250;21.228;2022-11-21T10:46:31;99396.55;;;12.26;47.21
36254;BME280;22291;52.250;21.228;2022-11-21T10:48:59;99397.67;;;12.31;45.47
36254;BME280;22291;52.250;21.228;2022-11-21T10:51:52;99402.98;;;12.15;45.68
36254;BME280;22291;52.250;21.228;2022-11-21T10:54:20;99405.70;;;12.22;45.86
36254;BME280;22291;52.250;21.228;2022-11-21T10:57:15;99402.67;;;12.11;45.34
36254;BME280;22291;52.250;21.228;2022-11-21T10:59:40;99407.61;;;11.84;44.78
36254;BME280;22291;52.250;21.228;2022-11-21T11:04:45;99408.98;;;12.21;45.97
36254;BME280;22291;52.250;21.228;2022-11-21T11:07:27;99416.38;;;12.43;45.59
36254;BME280;22291;52.250;21.228;2022-11-21T11:10:21;99416.75;;;12.41;45.31
36254;BME280;22291;52.250;21.228;2022-11-21T11:12:50;99416.75;;;12.35;45.25
36254;BME280;22291;52.250;21.228;2022-11-21T11:15:50;99406.27;;;11.90;44.36
36254;BME280;22291;52.250;21.228;2022-11-21T11:18:11;99412.59;;;11.70;44.94
36254;BME280;22291;52.250;21.228;2022-11-21T11:20:44;99406.91;;;11.50;45.21
36254;BME280;22291;52.250;21.228;2022-11-21T11:25:54;99409.52;;;11.59;45.12
36254;BME280;22291;52.250;21.228;2022-11-21T11:28:25;99399.36;;;11.50;44.92
36254;BME280;22291;52.250;21.228;2022-11-21T11:30:55;99405.19;;;11.33;45.01
36254;BME280;22291;52.250;21.228;2022-11-21T11:33:36;99402.24;;;11.26;45.86
36254;BME280;22291;52.250;21.228;2022-11-21T11:36:31;99408.33;;;11.17;44.90
36254;BME280;22291;52.250;21.228;2022-11-21T11:39:02;99409.83;;;10.99;44.52
36254;BME280;22291;52.250;21.228;2022-11-21T11:48:06;99415.92;;;10.33;45.03
36254;BME280;22291;52.250;21.228;2022-11-21T11:50:51;99407.55;;;9.96;45.41
36254;BME280;22291;52.250;21.228;2022-11-21T11:53:23;99406.20;;;9.58;45.77
36254;BME280;22291;52.250;21.228;2022-11-21T11:59:20;99399.21;;;9.57;46.42
36254;BME280;22291;52.250;21.228;2022-11-21T12:02:00;99396.02;;;9.16;44.85
36254;BME280;22291;52.250;21.228;2022-11-21T12:04:36;99388.70;;;8.12;45.90
36254;BME280;22291;52.250;21.228;2022-11-21T12:13:01;99383.63;;;6.31;48.09
36254;BME280;22291;52.250;21.228;2022-11-21T12:15:37;99385.00;;;5.75;49.37
36254;BME280;22291;52.250;21.228;2022-11-21T12:21:08;99377.30;;;5.13;50.90
36254;BME280;22291;52.250;21.228;2022-11-21T12:23:55;99372.03;;;4.92;51.79
36254;BME280;22291;52.250;21.228;2022-11-21T12:26:52;99370.23;;;4.71;52.41
36254;BME280;22291;52.250;21.228;2022-11-21T12:41:26;99358.05;;;4.95;55.80
36254;BME280;22291;52.250;21.228;2022-11-21T12:44:37;99354.99;;;5.32;55.67
36254;BME280;22291;52.250;21.228;2022-11-21T12:53:03;99357.66;;;5.18;53.52
36254;BME280;22291;52.250;21.228;2022-11-21T12:55:52;99354.91;;;4.90;53.73
36254;BME280;22291;52.250;21.228;2022-11-21T12:58:26;99358.36;;;4.58;54.07
36254;BME280;22291;52.250;21.228;2022-11-21T13:01:16;99358.95;;;4.36;54.41
36254;BME280;22291;52.250;21.228;2022-11-21T13:06:28;99357.06;;;3.98;55.23
36254;BME280;22291;52.250;21.228;2022-11-21T13:08:59;99356.48;;;3.80;55.76
36254;BME280;22291;52.250;21.228;2022-11-21T13:14:24;99356.19;;;3.84;57.44
36254;BME280;22291;52.250;21.228;2022-11-21T13:22:47;99342.23;;;4.79;58.36
36254;BME280;22291;52.250;21.228;2022-11-21T13:25:42;99337.05;;;4.85;57.31
36254;BME280;22291;52.250;21.228;2022-11-21T13:30:54;99324.72;;;4.68;56.24
36254;BME280;22291;52.250;21.228;2022-11-21T13:36:09;99319.66;;;4.15;56.26
36254;BME280;22291;52.250;21.228;2022-11-21T13:56:03;99307.05;;;2.49;59.25
36254;BME280;22291;52.250;21.228;2022-11-21T13:58:59;99305.02;;;2.33;59.44
36254;BME280;22291;52.250;21.228;2022-11-21T14:04:49;99299.09;;;2.01;60.38
36254;BME280;22291;52.250;21.228;2022-11-21T14:07:27;99297.86;;;1.83;60.85
36254;BME280;22291;52.250;21.228;2022-11-21T14:10:03;99298.48;;;1.65;61.58
36254;BME280;22291;52.250;21.228;2022-11-21T14:12:35;99308.69;;;1.50;61.76
36254;BME280;22291;52.250;21.228;2022-11-21T14:15:10;99303.93;;;1.34;62.14
36254;BME280;22291;52.250;21.228;2022-11-21T14:17:45;99306.64;;;1.19;62.64
36254;BME280;22291;52.250;21.228;2022-11-21T14:20:21;99310.41;;;1.05;63.29
36254;BME280;22291;52.250;21.228;2022-11-21T14:25:55;99313.89;;;0.85;62.93
36254;BME280;22291;52.250;21.228;2022-11-21T14:28:28;99317.89;;;0.80;63.79
36254;BME280;22291;52.250;21.228;2022-11-21T14:31:02;99318.17;;;0.76;64.46
36254;BME280;22291;52.250;21.228;2022-11-21T14:33:35;99317.91;;;0.69;64.85
36254;BME280;22291;52.250;21.228;2022-11-21T14:36:17;99313.11;;;0.66;64.89
36254;BME280;22291;52.250;21.228;2022-11-21T14:38:50;99316.59;;;0.62;65.13
36254;BME280;22291;52.250;21.228;2022-11-21T14:41:27;99314.72;;;0.57;65.88
36254;BME280;22291;52.250;21.228;2022-11-21T14:44:01;99310.71;;;0.49;65.89
36254;BME280;22291;52.250;21.228;2022-11-21T14:46:34;99317.91;;;0.49;66.32
36254;BME280;22291;52.250;21.228;2022-11-21T14:51:50;99310.45;;;0.41;67.45
36254;BME280;22291;52.250;21.228;2022-11-21T14:54:25;99308.34;;;0.38;67.66
36254;BME280;22291;52.250;21.228;2022-11-21T14:56:58;99305.92;;;0.33;68.08
36254;BME280;22291;52.250;21.228;2022-11-21T14:59:36;99308.86;;;0.29;68.31
36254;BME280;22291;52.250;21.228;2022-11-21T15:02:12;99303.53;;;0.27;68.56
36254;BME280;22291;52.250;21.228;2022-11-21T15:04:41;99308.04;;;0.24;68.88
36254;BME280;22291;52.250;21.228;2022-11-21T15:07:21;99306.97;;;0.22;69.09
36254;BME280;22291;52.250;21.228;2022-11-21T15:09:50;99306.19;;;0.19;69.63
36254;BME280;22291;52.250;21.228;2022-11-21T15:14:59;99303.52;;;0.16;70.02
36254;BME280;22291;52.250;21.228;2022-11-21T15:17:29;99311.75;;;0.15;70.43
36254;BME280;22291;52.250;21.228;2022-11-21T15:22:40;99310.42;;;0.10;70.33